sensor_id;sensor_type;location;lat;lon;timestamp;temperature;humidity
40996;DHT22;26723;57.478;12.066;2023-03-01T00:00:19;-1.50;99.90
40996;DHT22;26723;57.478;12.066;2023-03-01T00:03:27;-1.50;99.90
40996;DHT22;26723;57.478;12.066;2023-03-01T00:06:36;-1.60;99.90
40996;DHT22;26723;57.478;12.066;2023-03-01T00:09:45;-1.60;99.90
40996;DHT22;26723;57.478;12.066;2023-03-01T00:12:55;-1.60;99.90
40996;DHT22;26723;57.478;12.066;2023-03-01T00:16:05;-1.50;99.90
40996;DHT22;26723;57.478;12.066;2023-03-01T00:19:15;-1.40;99.90
40996;DHT22;26723;57.478;12.066;2023-03-01T00:22:26;-1.40;99.90
40996;DHT22;26723;57.478;12.066;2023-03-01T00:25:41;-1.50;99.90
40996;DHT22;26723;57.478;12.066;2023-03-01T00:28:51;-1.60;99.90
40996;DHT22;26723;57.478;12.066;2023-03-01T00:31:59;-1.70;99.90
40996;DHT22;26723;57.478;12.066;2023-03-01T00:35:08;-1.70;99.90
40996;DHT22;26723;57.478;12.066;2023-03-01T00:38:16;-1.70;99.90
40996;DHT22;26723;57.478;12.066;2023-03-01T00:41:25;-1.70;99.90
40996;DHT22;26723;57.478;12.066;2023-03-01T00:44:35;-1.50;99.90
40996;DHT22;26723;57.478;12.066;2023-03-01T00:47:44;-1.40;99.90
40996;DHT22;26723;57.478;12.066;2023-03-01T00:50:52;-1.40;99.90
40996;DHT22;26723;57.478;12.066;2023-03-01T00:54:02;-1.50;99.90
40996;DHT22;26723;57.478;12.066;2023-03-01T00:57:11;-1.60;99.90
40996;DHT22;26723;57.478;12.066;2023-03-01T01:00:21;-1.60;99.90
40996;DHT22;26723;57.478;12.066;2023-03-01T01:03:30;-1.70;99.90
40996;DHT22;26723;57.478;12.066;2023-03-01T01:06:39;-1.70;99.90
40996;DHT22;26723;57.478;12.066;2023-03-01T01:09:51;-1.50;99.90
40996;DHT22;26723;57.478;12.066;2023-03-01T01:13:00;-1.60;99.90
40996;DHT22;26723;57.478;12.066;2023-03-01T01:16:10;-1.60;99.90
40996;DHT22;26723;57.478;12.066;2023-03-01T01:19:18;-1.50;99.90
40996;DHT22;26723;57.478;12.066;2023-03-01T01:22:27;-1.50;99.90
40996;DHT22;26723;57.478;12.066;2023-03-01T01:25:36;-1.50;99.90
40996;DHT22;26723;57.478;12.066;2023-03-01T01:28:44;-1.60;99.90
40996;DHT22;26723;57.478;12.066;2023-03-01T01:31:54;-1.70;99.90
40996;DHT22;26723;57.478;12.066;2023-03-01T01:35:03;-1.60;99.90
40996;DHT22;26723;57.478;12.066;2023-03-01T01:38:12;-1.60;99.90
40996;DHT22;26723;57.478;12.066;2023-03-01T01:41:21;-1.70;99.90
40996;DHT22;26723;57.478;12.066;2023-03-01T01:44:32;-1.80;99.90
40996;DHT22;26723;57.478;12.066;2023-03-01T01:47:43;-1.80;99.90
40996;DHT22;26723;57.478;12.066;2023-03-01T01:50:59;-1.90;99.90
40996;DHT22;26723;57.478;12.066;2023-03-01T01:54:11;-1.90;99.90
40996;DHT22;26723;57.478;12.066;2023-03-01T01:57:22;-1.90;99.90
40996;DHT22;26723;57.478;12.066;2023-03-01T02:00:31;-1.80;99.90
40996;DHT22;26723;57.478;12.066;2023-03-01T02:03:43;-1.80;99.90
40996;DHT22;26723;57.478;12.066;2023-03-01T02:06:57;-1.90;99.90
40996;DHT22;26723;57.478;12.066;2023-03-01T02:10:07;-2.00;99.90
40996;DHT22;26723;57.478;12.066;2023-03-01T02:13:15;-1.90;99.90
40996;DHT22;26723;57.478;12.066;2023-03-01T02:16:25;-1.80;99.90
40996;DHT22;26723;57.478;12.066;2023-03-01T02:19:46;-1.80;99.90
40996;DHT22;26723;57.478;12.066;2023-03-01T02:22:57;-1.70;99.90
40996;DHT22;26723;57.478;12.066;2023-03-01T02:26:11;-1.80;99.90
40996;DHT22;26723;57.478;12.066;2023-03-01T02:29:25;-1.80;99.90
40996;DHT22;26723;57.478;12.066;2023-03-01T02:32:35;-1.70;99.90
40996;DHT22;26723;57.478;12.066;2023-03-01T02:35:43;-1.70;99.90
40996;DHT22;26723;57.478;12.066;2023-03-01T02:38:55;-1.70;99.90
40996;DHT22;26723;57.478;12.066;2023-03-01T02:42:04;-1.90;99.90
40996;DHT22;26723;57.478;12.066;2023-03-01T02:45:15;-1.80;99.90
40996;DHT22;26723;57.478;12.066;2023-03-01T02:48:24;-1.80;99.90
40996;DHT22;26723;57.478;12.066;2023-03-01T02:51:43;-1.90;99.90
40996;DHT22;26723;57.478;12.066;2023-03-01T02:54:59;-1.80;99.90
40996;DHT22;26723;57.478;12.066;2023-03-01T02:58:09;-1.90;99.90
40996;DHT22;26723;57.478;12.066;2023-03-01T03:01:19;-1.90;99.90
40996;DHT22;26723;57.478;12.066;2023-03-01T03:04:28;-2.00;99.90
40996;DHT22;26723;57.478;12.066;2023-03-01T03:07:38;-2.00;99.90
40996;DHT22;26723;57.478;12.066;2023-03-01T03:10:47;-2.10;99.90
40996;DHT22;26723;57.478;12.066;2023-03-01T03:13:56;-2.10;99.90
40996;DHT22;26723;57.478;12.066;2023-03-01T03:17:06;-2.10;99.90
40996;DHT22;26723;57.478;12.066;2023-03-01T03:20:16;-2.00;99.90
40996;DHT22;26723;57.478;12.066;2023-03-01T03:23:26;-2.00;99.90
40996;DHT22;26723;57.478;12.066;2023-03-01T03:26:36;-2.00;99.90
40996;DHT22;26723;57.478;12.066;2023-03-01T03:29:45;-2.00;99.90
40996;DHT22;26723;57.478;12.066;2023-03-01T03:32:56;-2.00;99.90
40996;DHT22;26723;57.478;12.066;2023-03-01T03:36:05;-2.10;99.90
40996;DHT22;26723;57.478;12.066;2023-03-01T03:39:13;-2.20;99.90
40996;DHT22;26723;57.478;12.066;2023-03-01T03:42:22;-2.20;99.90
40996;DHT22;26723;57.478;12.066;2023-03-01T03:45:30;-2.20;99.90
40996;DHT22;26723;57.478;12.066;2023-03-01T03:48:43;-2.20;99.90
40996;DHT22;26723;57.478;12.066;2023-03-01T03:51:52;-2.10;99.90
40996;DHT22;26723;57.478;12.066;2023-03-01T03:55:00;-2.10;99.90
40996;DHT22;26723;57.478;12.066;2023-03-01T03:58:10;-2.10;99.90
40996;DHT22;26723;57.478;12.066;2023-03-01T04:01:19;-2.20;99.90
40996;DHT22;26723;57.478;12.066;2023-03-01T04:04:29;-2.30;99.90
40996;DHT22;26723;57.478;12.066;2023-03-01T04:07:38;-2.40;99.90
40996;DHT22;26723;57.478;12.066;2023-03-01T04:10:50;-2.50;99.90
40996;DHT22;26723;57.478;12.066;2023-03-01T04:13:58;-2.40;99.90
40996;DHT22;26723;57.478;12.066;2023-03-01T04:17:07;-2.40;99.90
40996;DHT22;26723;57.478;12.066;2023-03-01T04:20:19;-2.50;99.90
40996;DHT22;26723;57.478;12.066;2023-03-01T04:23:32;-2.50;99.90
40996;DHT22;26723;57.478;12.066;2023-03-01T04:26:40;-2.40;99.90
40996;DHT22;26723;57.478;12.066;2023-03-01T04:29:49;-2.50;99.90
40996;DHT22;26723;57.478;12.066;2023-03-01T04:32:57;-2.40;99.90
40996;DHT22;26723;57.478;12.066;2023-03-01T04:36:08;-2.50;99.90
40996;DHT22;26723;57.478;12.066;2023-03-01T04:39:17;-2.50;99.90
40996;DHT22;26723;57.478;12.066;2023-03-01T04:42:25;-2.50;99.90
40996;DHT22;26723;57.478;12.066;2023-03-01T04:45:34;-2.50;99.90
40996;DHT22;26723;57.478;12.066;2023-03-01T04:48:45;-2.40;99.90
40996;DHT22;26723;57.478;12.066;2023-03-01T04:51:56;-2.50;99.90
40996;DHT22;26723;57.478;12.066;2023-03-01T04:55:06;-2.50;99.90
40996;DHT22;26723;57.478;12.066;2023-03-01T04:58:14;-2.50;99.90
40996;DHT22;26723;57.478;12.066;2023-03-01T05:01:23;-2.60;99.90
40996;DHT22;26723;57.478;12.066;2023-03-01T05:04:31;-2.60;99.90
40996;DHT22;26723;57.478;12.066;2023-03-01T05:07:41;-2.60;99.90
40996;DHT22;26723;57.478;12.066;2023-03-01T05:10:51;-2.60;99.90
40996;DHT22;26723;57.478;12.066;2023-03-01T05:14:00;-2.70;99.90
40996;DHT22;26723;57.478;12.066;2023-03-01T05:17:08;-2.70;99.90
40996;DHT22;26723;57.478;12.066;2023-03-01T05:20:18;-2.60;99.90
40996;DHT22;26723;57.478;12.066;2023-03-01T05:23:31;-2.50;99.90
40996;DHT22;26723;57.478;12.066;2023-03-01T05:26:40;-2.60;99.90
40996;DHT22;26723;57.478;12.066;2023-03-01T05:29:48;-2.70;99.90
40996;DHT22;26723;57.478;12.066;2023-03-01T05:32:57;-2.80;99.90
40996;DHT22;26723;57.478;12.066;2023-03-01T05:36:06;-2.70;99.90
40996;DHT22;26723;57.478;12.066;2023-03-01T05:39:16;-2.70;99.90
40996;DHT22;26723;57.478;12.066;2023-03-01T05:42:25;-2.60;99.90
40996;DHT22;26723;57.478;12.066;2023-03-01T05:45:35;-2.50;99.90
40996;DHT22;26723;57.478;12.066;2023-03-01T05:48:43;-2.50;99.90
40996;DHT22;26723;57.478;12.066;2023-03-01T05:51:53;-2.50;99.90
40996;DHT22;26723;57.478;12.066;2023-03-01T05:55:04;-2.60;99.90
40996;DHT22;26723;57.478;12.066;2023-03-01T05:58:14;-2.70;99.90
40996;DHT22;26723;57.478;12.066;2023-03-01T06:01:23;-2.80;99.90
40996;DHT22;26723;57.478;12.066;2023-03-01T06:04:31;-2.80;99.90
40996;DHT22;26723;57.478;12.066;2023-03-01T06:07:40;-2.70;99.90
40996;DHT22;26723;57.478;12.066;2023-03-01T06:10:50;-2.70;99.90
40996;DHT22;26723;57.478;12.066;2023-03-01T06:13:59;-2.70;99.90
40996;DHT22;26723;57.478;12.066;2023-03-01T06:17:07;-2.70;99.90
40996;DHT22;26723;57.478;12.066;2023-03-01T06:20:17;-2.60;99.90
40996;DHT22;26723;57.478;12.066;2023-03-01T06:23:26;-2.40;99.90
40996;DHT22;26723;57.478;12.066;2023-03-01T06:26:36;-2.30;99.90
40996;DHT22;26723;57.478;12.066;2023-03-01T06:29:44;-2.20;99.90
40996;DHT22;26723;57.478;12.066;2023-03-01T06:32:53;-2.00;99.90
40996;DHT22;26723;57.478;12.066;2023-03-01T06:36:08;-1.90;99.90
40996;DHT22;26723;57.478;12.066;2023-03-01T06:39:17;-1.80;99.90
40996;DHT22;26723;57.478;12.066;2023-03-01T06:42:27;-1.70;99.90
40996;DHT22;26723;57.478;12.066;2023-03-01T06:45:36;-1.40;99.90
40996;DHT22;26723;57.478;12.066;2023-03-01T06:48:46;-0.70;99.90
40996;DHT22;26723;57.478;12.066;2023-03-01T06:51:54;0.30;99.90
40996;DHT22;26723;57.478;12.066;2023-03-01T06:55:04;1.80;99.90
40996;DHT22;26723;57.478;12.066;2023-03-01T06:58:14;3.10;99.90
40996;DHT22;26723;57.478;12.066;2023-03-01T07:01:22;3.80;99.90
40996;DHT22;26723;57.478;12.066;2023-03-01T07:04:30;4.50;99.90
40996;DHT22;26723;57.478;12.066;2023-03-01T07:07:39;5.60;99.90
40996;DHT22;26723;57.478;12.066;2023-03-01T07:10:47;7.00;99.90
40996;DHT22;26723;57.478;12.066;2023-03-01T07:14:00;7.90;99.90
40996;DHT22;26723;57.478;12.066;2023-03-01T07:17:08;9.00;99.90
40996;DHT22;26723;57.478;12.066;2023-03-01T07:20:18;9.90;99.90
40996;DHT22;26723;57.478;12.066;2023-03-01T07:23:29;10.60;99.90
40996;DHT22;26723;57.478;12.066;2023-03-01T07:26:38;11.30;99.90
40996;DHT22;26723;57.478;12.066;2023-03-01T07:29:47;11.70;99.90
40996;DHT22;26723;57.478;12.066;2023-03-01T07:32:57;12.00;99.90
40996;DHT22;26723;57.478;12.066;2023-03-01T07:36:06;12.60;99.90
40996;DHT22;26723;57.478;12.066;2023-03-01T07:39:15;13.10;99.90
40996;DHT22;26723;57.478;12.066;2023-03-01T07:42:25;13.70;99.90
40996;DHT22;26723;57.478;12.066;2023-03-01T07:45:35;14.30;99.90
40996;DHT22;26723;57.478;12.066;2023-03-01T07:48:45;14.50;99.90
40996;DHT22;26723;57.478;12.066;2023-03-01T07:51:53;14.70;99.90
40996;DHT22;26723;57.478;12.066;2023-03-01T07:55:01;15.30;99.90
40996;DHT22;26723;57.478;12.066;2023-03-01T07:58:10;15.50;99.90
40996;DHT22;26723;57.478;12.066;2023-03-01T08:01:21;16.10;99.90
40996;DHT22;26723;57.478;12.066;2023-03-01T08:04:29;16.80;99.90
40996;DHT22;26723;57.478;12.066;2023-03-01T08:07:37;17.30;99.90
40996;DHT22;26723;57.478;12.066;2023-03-01T08:10:46;17.20;99.90
40996;DHT22;26723;57.478;12.066;2023-03-01T08:13:54;18.00;99.90
40996;DHT22;26723;57.478;12.066;2023-03-01T08:17:05;18.20;99.90
40996;DHT22;26723;57.478;12.066;2023-03-01T08:20:13;18.70;99.90
40996;DHT22;26723;57.478;12.066;2023-03-01T08:23:22;18.90;99.80
40996;DHT22;26723;57.478;12.066;2023-03-01T08:26:32;19.30;99.40
40996;DHT22;26723;57.478;12.066;2023-03-01T08:29:40;19.40;99.60
40996;DHT22;26723;57.478;12.066;2023-03-01T08:32:50;19.90;98.40
40996;DHT22;26723;57.478;12.066;2023-03-01T08:36:03;20.10;97.50
40996;DHT22;26723;57.478;12.066;2023-03-01T08:39:16;20.10;96.80
40996;DHT22;26723;57.478;12.066;2023-03-01T08:42:26;20.20;96.90
40996;DHT22;26723;57.478;12.066;2023-03-01T08:45:34;20.70;95.70
40996;DHT22;26723;57.478;12.066;2023-03-01T08:48:44;20.70;95.80
40996;DHT22;26723;57.478;12.066;2023-03-01T08:51:53;20.80;95.10
40996;DHT22;26723;57.478;12.066;2023-03-01T08:55:01;20.90;95.30
40996;DHT22;26723;57.478;12.066;2023-03-01T08:58:10;21.10;94.10
40996;DHT22;26723;57.478;12.066;2023-03-01T09:01:19;21.10;94.30
40996;DHT22;26723;57.478;12.066;2023-03-01T09:04:28;21.30;94.10
40996;DHT22;26723;57.478;12.066;2023-03-01T09:07:37;21.40;93.40
40996;DHT22;26723;57.478;12.066;2023-03-01T09:10:45;21.50;93.70
40996;DHT22;26723;57.478;12.066;2023-03-01T09:13:54;21.70;92.80
40996;DHT22;26723;57.478;12.066;2023-03-01T09:17:02;21.50;93.00
40996;DHT22;26723;57.478;12.066;2023-03-01T09:20:12;21.20;93.60
40996;DHT22;26723;57.478;12.066;2023-03-01T09:23:20;21.30;92.20
40996;DHT22;26723;57.478;12.066;2023-03-01T09:26:29;19.50;94.70
40996;DHT22;26723;57.478;12.066;2023-03-01T09:29:38;18.20;96.00
40996;DHT22;26723;57.478;12.066;2023-03-01T09:32:47;17.60;96.80
40996;DHT22;26723;57.478;12.066;2023-03-01T09:36:00;17.60;98.10
40996;DHT22;26723;57.478;12.066;2023-03-01T09:39:09;16.90;99.20
40996;DHT22;26723;57.478;12.066;2023-03-01T09:42:17;16.70;99.30
40996;DHT22;26723;57.478;12.066;2023-03-01T09:45:29;16.40;99.90
40996;DHT22;26723;57.478;12.066;2023-03-01T09:48:43;16.20;99.40
40996;DHT22;26723;57.478;12.066;2023-03-01T09:52:01;15.60;99.90
40996;DHT22;26723;57.478;12.066;2023-03-01T09:55:14;15.90;99.90
40996;DHT22;26723;57.478;12.066;2023-03-01T09:58:31;15.90;99.90
40996;DHT22;26723;57.478;12.066;2023-03-01T10:01:48;14.90;99.90
40996;DHT22;26723;57.478;12.066;2023-03-01T10:05:10;15.10;99.90
40996;DHT22;26723;57.478;12.066;2023-03-01T10:08:36;15.60;99.90
40996;DHT22;26723;57.478;12.066;2023-03-01T10:11:51;15.10;99.90
40996;DHT22;26723;57.478;12.066;2023-03-01T10:15:04;14.70;99.90
40996;DHT22;26723;57.478;12.066;2023-03-01T10:18:16;14.00;99.90
40996;DHT22;26723;57.478;12.066;2023-03-01T10:21:27;13.70;99.90
40996;DHT22;26723;57.478;12.066;2023-03-01T10:24:37;13.70;99.90
40996;DHT22;26723;57.478;12.066;2023-03-01T10:27:51;13.50;99.90
40996;DHT22;26723;57.478;12.066;2023-03-01T10:31:00;13.30;99.90
40996;DHT22;26723;57.478;12.066;2023-03-01T10:34:15;13.70;99.90
40996;DHT22;26723;57.478;12.066;2023-03-01T10:37:24;13.60;99.90
40996;DHT22;26723;57.478;12.066;2023-03-01T10:40:37;13.40;99.90
40996;DHT22;26723;57.478;12.066;2023-03-01T10:43:58;13.20;99.90
40996;DHT22;26723;57.478;12.066;2023-03-01T10:47:20;13.10;99.90
40996;DHT22;26723;57.478;12.066;2023-03-01T10:50:29;13.00;99.90
40996;DHT22;26723;57.478;12.066;2023-03-01T10:53:40;13.20;99.90
40996;DHT22;26723;57.478;12.066;2023-03-01T10:56:52;13.00;99.90
40996;DHT22;26723;57.478;12.066;2023-03-01T11:00:21;13.20;99.90
40996;DHT22;26723;57.478;12.066;2023-03-01T11:03:32;13.40;99.90
40996;DHT22;26723;57.478;12.066;2023-03-01T11:06:41;13.00;99.90
40996;DHT22;26723;57.478;12.066;2023-03-01T11:09:50;13.00;99.90
40996;DHT22;26723;57.478;12.066;2023-03-01T11:13:13;12.90;99.90
40996;DHT22;26723;57.478;12.066;2023-03-01T11:16:25;13.00;99.90
40996;DHT22;26723;57.478;12.066;2023-03-01T11:19:34;12.90;99.90
40996;DHT22;26723;57.478;12.066;2023-03-01T11:22:46;12.80;99.90
40996;DHT22;26723;57.478;12.066;2023-03-01T11:25:57;12.90;99.90
40996;DHT22;26723;57.478;12.066;2023-03-01T11:29:16;12.70;99.90
40996;DHT22;26723;57.478;12.066;2023-03-01T11:32:31;12.60;99.90
40996;DHT22;26723;57.478;12.066;2023-03-01T11:35:44;12.40;99.90
40996;DHT22;26723;57.478;12.066;2023-03-01T11:38:55;12.40;99.90
40996;DHT22;26723;57.478;12.066;2023-03-01T11:42:10;12.50;99.90
40996;DHT22;26723;57.478;12.066;2023-03-01T11:45:31;12.30;99.90
40996;DHT22;26723;57.478;12.066;2023-03-01T11:48:53;12.50;99.90
40996;DHT22;26723;57.478;12.066;2023-03-01T11:52:12;12.50;99.90
40996;DHT22;26723;57.478;12.066;2023-03-01T11:55:42;12.40;99.90
40996;DHT22;26723;57.478;12.066;2023-03-01T12:06:28;11.90;99.90
40996;DHT22;26723;57.478;12.066;2023-03-01T12:09:56;11.90;99.90
40996;DHT22;26723;57.478;12.066;2023-03-01T12:13:23;11.60;99.90
40996;DHT22;26723;57.478;12.066;2023-03-01T12:16:51;11.50;99.90
40996;DHT22;26723;57.478;12.066;2023-03-01T12:20:14;11.50;99.90
40996;DHT22;26723;57.478;12.066;2023-03-01T12:23:36;11.50;99.90
40996;DHT22;26723;57.478;12.066;2023-03-01T12:26:55;11.00;99.90
40996;DHT22;26723;57.478;12.066;2023-03-01T12:30:19;11.10;99.90
40996;DHT22;26723;57.478;12.066;2023-03-01T12:33:39;10.90;99.90
40996;DHT22;26723;57.478;12.066;2023-03-01T12:37:11;10.80;99.90
40996;DHT22;26723;57.478;12.066;2023-03-01T12:40:29;10.70;99.90
40996;DHT22;26723;57.478;12.066;2023-03-01T12:43:47;10.50;99.90
40996;DHT22;26723;57.478;12.066;2023-03-01T12:47:20;10.40;99.90
40996;DHT22;26723;57.478;12.066;2023-03-01T12:50:38;10.30;99.90
40996;DHT22;26723;57.478;12.066;2023-03-01T12:53:50;10.30;99.90
40996;DHT22;26723;57.478;12.066;2023-03-01T12:57:06;10.20;99.90
40996;DHT22;26723;57.478;12.066;2023-03-01T13:00:25;10.10;99.90
40996;DHT22;26723;57.478;12.066;2023-03-01T13:03:50;10.00;99.90
40996;DHT22;26723;57.478;12.066;2023-03-01T13:07:10;9.90;99.90
40996;DHT22;26723;57.478;12.066;2023-03-01T13:10:26;9.90;99.90
40996;DHT22;26723;57.478;12.066;2023-03-01T13:13:37;9.90;99.90
40996;DHT22;26723;57.478;12.066;2023-03-01T13:16:46;9.90;99.90
40996;DHT22;26723;57.478;12.066;2023-03-01T13:19:57;9.80;99.90
40996;DHT22;26723;57.478;12.066;2023-03-01T13:23:12;9.80;99.90
40996;DHT22;26723;57.478;12.066;2023-03-01T13:26:23;9.80;99.90
40996;DHT22;26723;57.478;12.066;2023-03-01T13:29:44;9.80;99.90
40996;DHT22;26723;57.478;12.066;2023-03-01T13:33:33;9.90;99.90
40996;DHT22;26723;57.478;12.066;2023-03-01T13:36:48;9.80;99.90
40996;DHT22;26723;57.478;12.066;2023-03-01T13:39:59;9.80;99.90
40996;DHT22;26723;57.478;12.066;2023-03-01T13:43:28;9.80;99.90
40996;DHT22;26723;57.478;12.066;2023-03-01T13:46:38;9.70;99.90
40996;DHT22;26723;57.478;12.066;2023-03-01T13:49:48;9.70;99.90
40996;DHT22;26723;57.478;12.066;2023-03-01T13:53:01;9.60;99.90
40996;DHT22;26723;57.478;12.066;2023-03-01T13:56:14;9.50;99.90
40996;DHT22;26723;57.478;12.066;2023-03-01T13:59:25;9.60;99.90
40996;DHT22;26723;57.478;12.066;2023-03-01T14:02:33;9.50;99.90
40996;DHT22;26723;57.478;12.066;2023-03-01T14:05:56;9.60;99.90
40996;DHT22;26723;57.478;12.066;2023-03-01T14:09:21;9.50;99.90
40996;DHT22;26723;57.478;12.066;2023-03-01T14:12:39;9.40;99.90
40996;DHT22;26723;57.478;12.066;2023-03-01T14:16:07;9.50;99.90
40996;DHT22;26723;57.478;12.066;2023-03-01T14:19:19;9.40;99.90
40996;DHT22;26723;57.478;12.066;2023-03-01T14:22:41;9.40;99.90
40996;DHT22;26723;57.478;12.066;2023-03-01T14:25:51;9.40;99.90
40996;DHT22;26723;57.478;12.066;2023-03-01T14:29:00;9.20;99.90
40996;DHT22;26723;57.478;12.066;2023-03-01T14:32:12;9.20;99.90
40996;DHT22;26723;57.478;12.066;2023-03-01T14:35:28;9.30;99.90
40996;DHT22;26723;57.478;12.066;2023-03-01T14:38:39;9.10;99.90
40996;DHT22;26723;57.478;12.066;2023-03-01T14:41:48;9.00;99.90
40996;DHT22;26723;57.478;12.066;2023-03-01T14:44:57;8.90;99.90
40996;DHT22;26723;57.478;12.066;2023-03-01T14:48:07;8.80;99.90
40996;DHT22;26723;57.478;12.066;2023-03-01T14:51:16;8.80;99.90
40996;DHT22;26723;57.478;12.066;2023-03-01T14:54:27;8.70;99.90
40996;DHT22;26723;57.478;12.066;2023-03-01T14:57:35;8.70;99.90
40996;DHT22;26723;57.478;12.066;2023-03-01T15:00:49;8.50;99.90
40996;DHT22;26723;57.478;12.066;2023-03-01T15:03:59;8.40;99.90
40996;DHT22;26723;57.478;12.066;2023-03-01T15:07:12;8.20;99.90
40996;DHT22;26723;57.478;12.066;2023-03-01T15:10:22;8.10;99.90
40996;DHT22;26723;57.478;12.066;2023-03-01T15:13:32;8.00;99.90
40996;DHT22;26723;57.478;12.066;2023-03-01T15:16:41;8.00;99.90
40996;DHT22;26723;57.478;12.066;2023-03-01T15:19:52;7.90;99.90
40996;DHT22;26723;57.478;12.066;2023-03-01T15:23:01;7.80;99.90
40996;DHT22;26723;57.478;12.066;2023-03-01T15:26:23;7.80;99.90
40996;DHT22;26723;57.478;12.066;2023-03-01T15:29:33;7.70;99.90
40996;DHT22;26723;57.478;12.066;2023-03-01T15:32:47;7.70;99.90
40996;DHT22;26723;57.478;12.066;2023-03-01T15:35:57;7.60;99.90
40996;DHT22;26723;57.478;12.066;2023-03-01T15:42:51;7.40;99.90
40996;DHT22;26723;57.478;12.066;2023-03-01T15:45:59;7.30;99.90
40996;DHT22;26723;57.478;12.066;2023-03-01T15:49:25;7.20;99.90
40996;DHT22;26723;57.478;12.066;2023-03-01T15:52:40;7.10;99.90
40996;DHT22;26723;57.478;12.066;2023-03-01T15:55:49;7.00;99.90
40996;DHT22;26723;57.478;12.066;2023-03-01T15:58:59;6.90;99.90
40996;DHT22;26723;57.478;12.066;2023-03-01T16:02:09;6.90;99.90
40996;DHT22;26723;57.478;12.066;2023-03-01T16:05:22;6.80;99.90
40996;DHT22;26723;57.478;12.066;2023-03-01T16:08:32;6.80;99.90
40996;DHT22;26723;57.478;12.066;2023-03-01T16:11:40;6.70;99.90
40996;DHT22;26723;57.478;12.066;2023-03-01T16:14:50;6.70;99.90
40996;DHT22;26723;57.478;12.066;2023-03-01T16:18:01;6.60;99.90
40996;DHT22;26723;57.478;12.066;2023-03-01T16:21:14;6.50;99.90
40996;DHT22;26723;57.478;12.066;2023-03-01T16:24:25;6.50;99.90
40996;DHT22;26723;57.478;12.066;2023-03-01T16:27:33;6.30;99.90
40996;DHT22;26723;57.478;12.066;2023-03-01T16:30:46;6.20;99.90
40996;DHT22;26723;57.478;12.066;2023-03-01T16:33:56;6.20;99.90
40996;DHT22;26723;57.478;12.066;2023-03-01T16:37:04;6.10;99.90
40996;DHT22;26723;57.478;12.066;2023-03-01T16:40:18;5.90;99.90
40996;DHT22;26723;57.478;12.066;2023-03-01T16:43:28;5.90;99.90
40996;DHT22;26723;57.478;12.066;2023-03-01T16:46:37;5.80;99.90
40996;DHT22;26723;57.478;12.066;2023-03-01T16:49:45;5.80;99.90
40996;DHT22;26723;57.478;12.066;2023-03-01T16:52:53;5.60;99.90
40996;DHT22;26723;57.478;12.066;2023-03-01T16:56:05;5.50;99.90
40996;DHT22;26723;57.478;12.066;2023-03-01T16:59:14;5.40;99.90
40996;DHT22;26723;57.478;12.066;2023-03-01T17:02:23;5.30;99.90
40996;DHT22;26723;57.478;12.066;2023-03-01T17:05:32;5.20;99.90
40996;DHT22;26723;57.478;12.066;2023-03-01T17:08:41;5.20;99.90
40996;DHT22;26723;57.478;12.066;2023-03-01T17:11:51;5.00;99.90
40996;DHT22;26723;57.478;12.066;2023-03-01T17:15:01;4.80;99.90
40996;DHT22;26723;57.478;12.066;2023-03-01T17:18:10;4.70;99.90
40996;DHT22;26723;57.478;12.066;2023-03-01T17:21:19;4.70;99.90
40996;DHT22;26723;57.478;12.066;2023-03-01T17:24:27;4.50;99.90
40996;DHT22;26723;57.478;12.066;2023-03-01T17:27:38;4.40;99.90
40996;DHT22;26723;57.478;12.066;2023-03-01T17:30:46;4.30;99.90
40996;DHT22;26723;57.478;12.066;2023-03-01T17:33:55;4.20;99.90
40996;DHT22;26723;57.478;12.066;2023-03-01T17:37:05;4.10;99.90
40996;DHT22;26723;57.478;12.066;2023-03-01T17:40:14;4.10;99.90
40996;DHT22;26723;57.478;12.066;2023-03-01T17:43:24;4.00;99.90
40996;DHT22;26723;57.478;12.066;2023-03-01T17:46:32;4.00;99.90
40996;DHT22;26723;57.478;12.066;2023-03-01T17:49:41;4.00;99.90
40996;DHT22;26723;57.478;12.066;2023-03-01T17:52:49;3.90;99.90
40996;DHT22;26723;57.478;12.066;2023-03-01T17:56:03;3.90;99.90
40996;DHT22;26723;57.478;12.066;2023-03-01T17:59:14;3.90;99.90
40996;DHT22;26723;57.478;12.066;2023-03-01T18:02:23;3.80;99.90
40996;DHT22;26723;57.478;12.066;2023-03-01T18:05:33;3.60;99.90
40996;DHT22;26723;57.478;12.066;2023-03-01T18:08:42;3.50;99.90
40996;DHT22;26723;57.478;12.066;2023-03-01T18:11:51;3.40;99.90
40996;DHT22;26723;57.478;12.066;2023-03-01T18:15:01;3.40;99.90
40996;DHT22;26723;57.478;12.066;2023-03-01T18:18:10;3.40;99.90
40996;DHT22;26723;57.478;12.066;2023-03-01T18:21:18;3.40;99.90
40996;DHT22;26723;57.478;12.066;2023-03-01T18:24:27;3.40;99.90
40996;DHT22;26723;57.478;12.066;2023-03-01T18:27:35;3.30;99.90
40996;DHT22;26723;57.478;12.066;2023-03-01T18:30:46;3.20;99.90
40996;DHT22;26723;57.478;12.066;2023-03-01T18:33:54;3.10;99.90
40996;DHT22;26723;57.478;12.066;2023-03-01T18:37:02;3.00;99.90
40996;DHT22;26723;57.478;12.066;2023-03-01T18:40:16;2.90;99.90
40996;DHT22;26723;57.478;12.066;2023-03-01T18:43:24;2.80;99.90
40996;DHT22;26723;57.478;12.066;2023-03-01T18:46:36;2.80;99.90
40996;DHT22;26723;57.478;12.066;2023-03-01T18:49:46;2.70;99.90
40996;DHT22;26723;57.478;12.066;2023-03-01T18:52:57;2.60;99.90
40996;DHT22;26723;57.478;12.066;2023-03-01T18:56:06;2.60;99.90
40996;DHT22;26723;57.478;12.066;2023-03-01T18:59:14;2.50;99.90
40996;DHT22;26723;57.478;12.066;2023-03-01T19:02:24;2.40;99.90
40996;DHT22;26723;57.478;12.066;2023-03-01T19:05:33;2.40;99.90
40996;DHT22;26723;57.478;12.066;2023-03-01T19:08:41;2.30;99.90
40996;DHT22;26723;57.478;12.066;2023-03-01T19:11:51;2.30;99.90
40996;DHT22;26723;57.478;12.066;2023-03-01T19:15:05;2.30;99.90
40996;DHT22;26723;57.478;12.066;2023-03-01T19:18:16;2.20;99.90
40996;DHT22;26723;57.478;12.066;2023-03-01T19:21:26;2.30;99.90
40996;DHT22;26723;57.478;12.066;2023-03-01T19:24:35;2.40;99.90
40996;DHT22;26723;57.478;12.066;2023-03-01T19:27:43;2.30;99.90
40996;DHT22;26723;57.478;12.066;2023-03-01T19:30:56;2.30;99.90
40996;DHT22;26723;57.478;12.066;2023-03-01T19:34:05;2.30;99.90
40996;DHT22;26723;57.478;12.066;2023-03-01T19:37:17;2.10;99.90
40996;DHT22;26723;57.478;12.066;2023-03-01T19:40:26;2.10;99.90
40996;DHT22;26723;57.478;12.066;2023-03-01T19:43:35;2.00;99.90
40996;DHT22;26723;57.478;12.066;2023-03-01T19:46:43;1.90;99.90
40996;DHT22;26723;57.478;12.066;2023-03-01T19:49:53;1.90;99.90
40996;DHT22;26723;57.478;12.066;2023-03-01T19:53:02;1.80;99.90
40996;DHT22;26723;57.478;12.066;2023-03-01T19:56:10;1.70;99.90
40996;DHT22;26723;57.478;12.066;2023-03-01T19:59:19;1.70;99.90
40996;DHT22;26723;57.478;12.066;2023-03-01T20:02:30;1.70;99.90
40996;DHT22;26723;57.478;12.066;2023-03-01T20:05:40;1.60;99.90
40996;DHT22;26723;57.478;12.066;2023-03-01T20:08:49;1.60;99.90